createdAt,value
2018-09-24T00:00:23.837Z,5.10
2018-09-24T00:02:52.022Z,5.83
2018-09-24T00:05:20.326Z,5.40
2018-09-24T00:07:48.608Z,5.33
2018-09-24T00:10:16.892Z,5.70
2018-09-24T00:12:45.186Z,5.83
2018-09-24T00:15:13.471Z,5.60
2018-09-24T00:17:41.768Z,6.00
2018-09-24T00:20:10.043Z,5.60
2018-09-24T00:22:38.342Z,6.40
2018-09-24T00:25:06.631Z,6.40
2018-09-24T00:27:34.914Z,6.00
2018-09-24T00:30:03.209Z,6.17
2018-09-24T00:32:31.495Z,5.67
2018-09-24T00:34:59.782Z,6.17
2018-09-24T00:37:28.066Z,6.37
2018-09-24T00:39:56.362Z,6.00
2018-09-24T00:42:24.646Z,5.43
2018-09-24T00:44:52.930Z,6.20
2018-09-24T00:47:21.230Z,5.10
2018-09-24T00:49:49.510Z,5.20
2018-09-24T00:52:17.803Z,6.23
2018-09-24T00:54:46.090Z,5.87
2018-09-24T00:57:14.387Z,5.70
2018-09-24T00:59:42.667Z,5.10
2018-09-24T01:02:10.950Z,5.70
2018-09-24T01:04:39.243Z,5.43
2018-09-24T01:07:07.523Z,5.90
2018-09-24T01:09:35.815Z,5.80
2018-09-24T01:12:04.099Z,5.93
2018-09-24T01:14:32.409Z,5.73
2018-09-24T01:17:00.695Z,6.33
2018-09-24T01:19:28.982Z,5.70
2018-09-24T01:21:57.278Z,5.53
2018-09-24T01:24:25.573Z,5.90
2018-09-24T01:26:53.858Z,5.83
2018-09-24T01:29:22.138Z,6.90
2018-09-24T01:31:50.442Z,6.00
2018-09-24T01:34:18.721Z,6.20
2018-09-24T01:36:47.003Z,5.13
2018-09-24T01:39:15.296Z,5.70
2018-09-24T01:41:43.594Z,6.40
2018-09-24T01:44:11.882Z,5.27
2018-09-24T01:46:40.158Z,5.57
2018-09-24T01:49:08.467Z,6.37
2018-09-24T01:51:36.742Z,6.23
2018-09-24T01:54:05.031Z,5.60
2018-09-24T01:56:33.319Z,7.10
2018-09-24T01:59:01.609Z,6.33
2018-09-24T02:01:29.906Z,6.80
2018-09-24T02:03:58.186Z,7.80
2018-09-24T02:06:26.487Z,7.00
2018-09-24T02:08:54.777Z,6.87
2018-09-24T02:11:23.058Z,6.67
2018-09-24T02:13:51.354Z,7.47
2018-09-24T02:16:19.637Z,7.30
2018-09-24T02:18:47.948Z,7.60
2018-09-24T02:21:16.216Z,7.37
2018-09-24T02:23:44.502Z,7.07
2018-09-24T02:26:12.802Z,7.77
2018-09-24T02:28:41.075Z,7.90
2018-09-24T02:31:09.358Z,8.10
2018-09-24T02:33:37.640Z,8.20
2018-09-24T02:36:05.938Z,8.70
2018-09-24T02:38:34.223Z,8.67
2018-09-24T02:41:02.518Z,7.87
2018-09-24T02:43:30.812Z,9.10
2018-09-24T02:45:59.102Z,8.20
2018-09-24T02:48:28.003Z,8.40
2018-09-24T02:50:56.307Z,8.53
2018-09-24T02:53:24.588Z,8.63
2018-09-24T02:55:52.873Z,8.30
2018-09-24T02:58:21.166Z,7.90
2018-09-24T03:00:49.455Z,8.80
2018-09-24T03:03:17.738Z,7.00
2018-09-24T03:05:46.041Z,8.27
2018-09-24T03:08:14.328Z,8.13
2018-09-24T03:10:42.616Z,8.87
2018-09-24T03:13:10.907Z,8.47
2018-09-24T03:15:39.189Z,8.50
2018-09-24T03:18:07.492Z,8.87
2018-09-24T03:20:35.782Z,8.40
2018-09-24T03:23:04.076Z,9.23
2018-09-24T03:25:32.362Z,8.80
2018-09-24T03:28:00.659Z,9.47
2018-09-24T03:30:28.940Z,9.60
2018-09-24T03:32:57.267Z,9.10
2018-09-24T03:35:25.535Z,9.03
2018-09-24T03:37:53.823Z,9.90
2018-09-24T03:40:22.128Z,9.37
2018-09-24T03:42:50.414Z,8.57
2018-09-24T03:45:18.703Z,9.10
2018-09-24T03:47:46.983Z,9.67
2018-09-24T03:50:15.279Z,10.30
2018-09-24T03:52:43.564Z,9.30
2018-09-24T03:55:11.843Z,9.70
2018-09-24T03:57:40.127Z,9.27
2018-09-24T04:00:08.405Z,9.10
2018-09-24T04:02:39.378Z,9.10
2018-09-24T04:05:13.239Z,10.40
2018-09-24T04:07:47.208Z,10.10
2018-09-24T04:10:21.019Z,10.80
2018-09-24T04:12:55.042Z,11.50
2018-09-24T04:15:29.051Z,9.87
2018-09-24T04:18:02.870Z,10.13
2018-09-24T04:20:36.909Z,10.93
2018-09-24T04:23:10.779Z,10.57
2018-09-24T04:25:44.621Z,10.37
2018-09-24T04:28:18.664Z,10.80
2018-09-24T04:30:52.566Z,11.00
2018-09-24T04:33:26.597Z,10.13
2018-09-24T04:36:00.575Z,9.33
2018-09-24T04:38:34.479Z,11.30
2018-09-24T04:41:08.408Z,10.13
2018-09-24T04:43:42.281Z,10.47
2018-09-24T04:46:16.363Z,10.10
2018-09-24T04:48:50.085Z,10.77
2018-09-24T04:51:24.004Z,10.60
2018-09-24T04:53:57.802Z,10.20
2018-09-24T04:56:31.665Z,10.20
2018-09-24T04:59:05.503Z,9.83
2018-09-24T05:01:39.408Z,10.20
2018-09-24T05:04:13.407Z,10.13
2018-09-24T05:06:47.344Z,11.40
2018-09-24T05:09:21.158Z,10.00
2018-09-24T05:11:54.926Z,10.97
2018-09-24T05:14:28.791Z,10.73
2018-09-24T05:17:02.716Z,10.40
2018-09-24T05:19:36.610Z,10.77
2018-09-24T05:22:10.430Z,11.07
2018-09-24T05:24:44.294Z,11.83
2018-09-24T05:27:18.278Z,9.50
2018-09-24T05:29:52.139Z,10.40
2018-09-24T05:32:26.152Z,10.63
2018-09-24T05:35:00.133Z,11.80
2018-09-24T05:37:34.040Z,11.27
2018-09-24T05:40:07.916Z,11.80
2018-09-24T05:42:41.745Z,11.13
2018-09-24T05:45:15.791Z,11.03
2018-09-24T05:47:49.752Z,11.43
2018-09-24T05:50:23.694Z,12.83
2018-09-24T05:52:57.727Z,13.00
2018-09-24T05:55:31.479Z,12.97
2018-09-24T05:58:05.362Z,11.97
2018-09-24T06:00:39.267Z,11.50
2018-09-24T06:03:13.251Z,11.70
2018-09-24T06:05:47.176Z,11.43
2018-09-24T06:08:20.998Z,11.33
2018-09-24T06:10:55.039Z,12.43
2018-09-24T06:13:29.023Z,11.53
2018-09-24T06:16:02.856Z,11.57
2018-09-24T06:18:36.814Z,11.63
2018-09-24T06:21:10.610Z,11.27
2018-09-24T06:23:44.626Z,11.03
2018-09-24T06:26:18.567Z,12.27
2018-09-24T06:28:52.547Z,11.10
2018-09-24T06:31:26.395Z,12.50
2018-09-24T06:34:00.116Z,12.33
2018-09-24T06:36:34.087Z,11.50
2018-09-24T06:39:07.948Z,10.97
2018-09-24T06:41:41.794Z,12.10
2018-09-24T06:44:15.655Z,11.20
2018-09-24T06:46:49.578Z,11.53
2018-09-24T06:49:23.467Z,11.50
2018-09-24T06:51:57.732Z,11.47
2018-09-24T06:54:31.867Z,11.60
2018-09-24T06:57:05.859Z,11.07
2018-09-24T06:59:39.951Z,11.63
2018-09-24T07:02:13.766Z,10.47
2018-09-24T07:04:47.656Z,11.30
2018-09-24T07:07:21.452Z,11.40
2018-09-24T07:09:55.300Z,10.13
2018-09-24T07:12:29.297Z,9.50
2018-09-24T07:15:03.171Z,9.60
2018-09-24T07:17:37.023Z,10.10
2018-09-24T07:20:11.025Z,10.00
2018-09-24T07:22:44.868Z,9.43
2018-09-24T07:25:18.729Z,10.13
2018-09-24T07:27:52.612Z,9.93
2018-09-24T07:30:26.539Z,9.80
2018-09-24T07:33:00.353Z,10.03
2018-09-24T07:35:34.268Z,10.00
2018-09-24T07:38:08.261Z,11.40
2018-09-24T07:40:42.204Z,9.30
2018-09-24T07:43:16.120Z,8.67
2018-09-24T07:45:49.922Z,9.60
2018-09-24T07:48:23.658Z,8.80
2018-09-24T07:50:57.694Z,9.00
2018-09-24T07:53:31.605Z,8.93
2018-09-24T07:56:05.575Z,9.00
2018-09-24T07:58:39.567Z,7.57
2018-09-24T08:01:13.521Z,7.97
2018-09-24T08:03:47.340Z,8.10
2018-09-24T08:06:21.341Z,8.30
2018-09-24T08:08:55.223Z,8.70
2018-09-24T08:11:29.177Z,7.60
2018-09-24T08:14:03.039Z,8.10
2018-09-24T08:16:37.047Z,8.13
2018-09-24T08:19:10.876Z,8.13
2018-09-24T08:21:44.710Z,6.80
2018-09-24T08:24:18.755Z,7.57
2018-09-24T08:26:52.430Z,6.93
2018-09-24T08:29:26.363Z,7.70
2018-09-24T08:32:00.277Z,7.57
2018-09-24T08:34:34.095Z,7.53
2018-09-24T08:37:08.063Z,6.77
2018-09-24T08:39:41.874Z,6.30
2018-09-24T08:42:15.870Z,6.07
2018-09-24T08:44:49.659Z,6.13
2018-09-24T08:47:23.722Z,6.50
2018-09-24T08:49:57.632Z,6.60
2018-09-24T08:52:31.504Z,6.63
2018-09-24T08:55:05.422Z,6.20
2018-09-24T08:57:39.278Z,6.20
2018-09-24T09:00:13.151Z,5.07
2018-09-24T09:02:47.124Z,5.30
2018-09-24T09:05:21.188Z,5.80
2018-09-24T09:07:55.323Z,5.20
2018-09-24T09:10:29.083Z,6.17
2018-09-24T09:13:02.952Z,5.67
2018-09-24T09:15:36.930Z,5.00
2018-09-24T09:18:10.774Z,4.63
2018-09-24T09:20:44.751Z,5.80
2018-09-24T09:23:18.588Z,4.27
2018-09-24T09:25:52.452Z,4.73
2018-09-24T09:28:26.362Z,5.30
2018-09-24T09:31:01.087Z,6.40
2018-09-24T09:33:34.947Z,4.53
2018-09-24T09:36:08.839Z,4.73
2018-09-24T09:38:42.703Z,4.90
2018-09-24T09:41:16.532Z,5.30
2018-09-24T09:43:50.494Z,5.40
2018-09-24T09:46:24.431Z,4.80
2018-09-24T09:48:58.246Z,4.30
2018-09-24T09:51:32.179Z,4.97
2018-09-24T09:54:06.111Z,4.93
2018-09-24T09:56:40.061Z,5.40
2018-09-24T09:59:14.118Z,4.93
2018-09-24T10:01:48.148Z,4.97
2018-09-24T10:04:22.055Z,4.70
2018-09-24T10:06:56.066Z,4.97
2018-09-24T10:09:29.882Z,4.67
2018-09-24T10:12:03.764Z,5.27
2018-09-24T10:14:37.619Z,4.63
2018-09-24T10:17:11.603Z,5.07
2018-09-24T10:19:45.470Z,4.57
2018-09-24T10:22:19.529Z,3.97
2018-09-24T10:24:53.503Z,4.73
2018-09-24T10:27:27.419Z,4.23
2018-09-24T10:30:01.442Z,4.30
2018-09-24T10:32:35.482Z,3.93
2018-09-24T10:35:09.308Z,4.53
2018-09-24T10:37:43.214Z,4.50
2018-09-24T10:40:17.097Z,4.10
2018-09-24T10:42:51.071Z,4.53
2018-09-24T10:45:24.885Z,4.73
2018-09-24T10:47:58.725Z,4.60
2018-09-24T10:50:32.506Z,4.70
2018-09-24T10:53:06.417Z,3.80
2018-09-24T10:55:40.092Z,4.37
2018-09-24T10:58:13.895Z,4.40
2018-09-24T11:00:47.725Z,5.37
2018-09-24T11:03:21.723Z,4.50
2018-09-24T11:05:55.767Z,4.80
2018-09-24T11:08:29.624Z,3.90
2018-09-24T11:11:03.615Z,4.80
2018-09-24T11:13:37.639Z,4.50
2018-09-24T11:16:11.716Z,4.27
2018-09-24T11:18:45.594Z,5.13
2018-09-24T11:21:19.252Z,4.23
2018-09-24T11:23:53.112Z,4.00
2018-09-24T11:26:33.870Z,4.27
2018-09-24T11:29:00.630Z,5.30
2018-09-24T11:31:34.323Z,4.30
2018-09-24T11:34:08.171Z,5.00
2018-09-24T11:36:42.055Z,3.67
2018-09-24T11:39:15.899Z,4.20
2018-09-24T11:41:49.626Z,4.07
2018-09-24T11:44:23.434Z,4.70
2018-09-24T11:46:57.303Z,4.60
2018-09-24T11:49:30.918Z,4.80
2018-09-24T11:52:04.919Z,4.90
2018-09-24T11:54:38.825Z,3.90
2018-09-24T11:57:12.781Z,4.73
2018-09-24T11:59:46.775Z,4.00
2018-09-24T12:02:20.703Z,4.23
2018-09-24T12:04:54.530Z,4.30
2018-09-24T12:07:28.413Z,4.47
2018-09-24T12:10:02.290Z,4.67
2018-09-24T12:12:36.246Z,4.07
2018-09-24T12:15:10.023Z,3.90
2018-09-24T12:17:43.927Z,4.00
2018-09-24T12:20:17.752Z,3.80
2018-09-24T12:22:51.766Z,3.50
2018-09-24T12:25:25.618Z,4.70
2018-09-24T12:27:59.446Z,4.30
2018-09-24T12:30:33.323Z,3.70
2018-09-24T12:33:07.147Z,4.00
2018-09-24T12:35:41.050Z,4.47
2018-09-24T12:38:15.085Z,3.63
2018-09-24T12:40:48.917Z,4.27
2018-09-24T12:43:22.792Z,4.50
2018-09-24T12:45:56.743Z,4.23
2018-09-24T12:48:30.729Z,4.47
2018-09-24T12:51:06.841Z,3.90
2018-09-24T12:53:40.706Z,4.50
2018-09-24T12:56:14.539Z,4.63
2018-09-24T12:58:48.340Z,4.97
2018-09-24T13:01:22.167Z,4.67
2018-09-24T13:03:56.019Z,4.73
2018-09-24T13:06:29.819Z,4.50
2018-09-24T13:09:03.807Z,4.03
2018-09-24T13:11:37.658Z,4.30
2018-09-24T13:14:11.490Z,4.20
2018-09-24T13:16:45.439Z,4.00
2018-09-24T13:19:19.499Z,4.20
2018-09-24T13:21:53.302Z,4.60
2018-09-24T13:24:27.088Z,4.57
2018-09-24T13:27:01.071Z,3.90
2018-09-24T13:29:34.982Z,4.57
2018-09-24T13:32:08.986Z,4.50
2018-09-24T13:34:42.796Z,4.23
2018-09-24T13:37:16.691Z,4.30
2018-09-24T13:39:50.555Z,4.73
2018-09-24T13:42:24.536Z,4.63
2018-09-24T13:44:58.491Z,4.70
2018-09-24T13:47:32.438Z,4.53
2018-09-24T13:50:06.316Z,4.10
2018-09-24T13:52:40.218Z,4.00
2018-09-24T13:55:14.434Z,4.60
2018-09-24T13:57:48.378Z,3.90
2018-09-24T14:00:22.336Z,4.20
2018-09-24T14:02:56.206Z,5.00
2018-09-24T14:05:30.035Z,4.47
2018-09-24T14:08:03.867Z,4.33
2018-09-24T14:10:37.675Z,3.90
2018-09-24T14:13:11.791Z,4.80
2018-09-24T14:15:45.738Z,4.53
2018-09-24T14:18:19.642Z,3.97
2018-09-24T14:20:53.510Z,4.40
2018-09-24T14:23:27.514Z,4.30
2018-09-24T14:26:01.523Z,4.47
2018-09-24T14:28:35.446Z,4.00
2018-09-24T14:31:09.386Z,4.40
2018-09-24T14:33:43.430Z,4.33
2018-09-24T14:36:17.411Z,4.27
2018-09-24T14:38:51.567Z,4.30
2018-09-24T14:41:25.467Z,4.17
2018-09-24T14:43:59.398Z,3.60
2018-09-24T14:46:33.302Z,4.20
2018-09-24T14:49:07.244Z,4.50
2018-09-24T14:51:41.013Z,4.90
2018-09-24T14:54:14.994Z,4.43
2018-09-24T14:56:48.815Z,3.80
2018-09-24T14:59:22.692Z,4.10
2018-09-24T15:01:56.719Z,4.17
2018-09-24T15:04:30.683Z,4.50
2018-09-24T15:07:04.679Z,3.80
2018-09-24T15:09:38.617Z,4.40
2018-09-24T15:12:12.591Z,4.87
2018-09-24T15:14:46.585Z,4.60
2018-09-24T15:17:20.551Z,4.30
2018-09-24T15:19:54.223Z,3.90
2018-09-24T15:22:28.127Z,3.97
2018-09-24T15:25:02.111Z,4.00
2018-09-24T15:27:36.034Z,4.60
2018-09-24T15:30:09.947Z,4.07
2018-09-24T15:32:43.890Z,4.20
2018-09-24T15:35:17.811Z,4.40
2018-09-24T15:37:51.800Z,3.90
2018-09-24T15:40:25.736Z,4.17
2018-09-24T15:42:59.506Z,4.90
2018-09-24T15:45:33.682Z,4.50
2018-09-24T15:48:07.723Z,4.37
2018-09-24T15:50:41.490Z,4.00
2018-09-24T15:53:15.149Z,4.73
2018-09-24T15:55:48.958Z,4.63
2018-09-24T15:58:22.755Z,4.00
2018-09-24T16:00:56.611Z,3.90
2018-09-24T16:03:30.392Z,4.20
2018-09-24T16:06:04.190Z,3.50
2018-09-24T16:08:38.169Z,3.90
2018-09-24T16:11:12.012Z,4.03
2018-09-24T16:13:46.031Z,4.57
2018-09-24T16:16:19.883Z,4.00
2018-09-24T16:18:53.843Z,4.40
2018-09-24T16:21:27.815Z,5.10
2018-09-24T16:24:01.583Z,3.90
2018-09-24T16:26:35.506Z,4.30
2018-09-24T16:29:09.535Z,4.20
2018-09-24T16:31:43.532Z,4.70
2018-09-24T16:34:17.483Z,4.30
2018-09-24T16:36:51.429Z,4.83
2018-09-24T16:39:25.411Z,4.30
2018-09-24T16:41:59.426Z,4.07
2018-09-24T16:44:33.121Z,4.37
2018-09-24T16:47:07.111Z,4.90
2018-09-24T16:49:41.184Z,5.60
2018-09-24T16:52:15.051Z,4.30
2018-09-24T16:54:48.866Z,4.73
2018-09-24T16:57:22.848Z,4.63
2018-09-24T16:59:56.798Z,4.53
2018-09-24T17:02:30.756Z,4.67
2018-09-24T17:05:04.686Z,4.77
2018-09-24T17:07:38.579Z,5.67
2018-09-24T17:10:12.370Z,5.07
2018-09-24T17:12:46.147Z,6.03
2018-09-24T17:15:20.004Z,11.00
2018-09-24T17:17:53.805Z,4.90
2018-09-24T17:20:27.708Z,5.87
2018-09-24T17:23:01.710Z,5.30
2018-09-24T17:25:35.711Z,7.27
2018-09-24T17:28:09.639Z,6.40
2018-09-24T17:30:43.467Z,6.20
2018-09-24T17:33:17.406Z,5.60
2018-09-24T17:35:51.174Z,4.90
2018-09-24T17:38:25.116Z,5.93
2018-09-24T17:40:59.135Z,5.00
2018-09-24T17:43:33.187Z,5.10
2018-09-24T17:46:07.182Z,5.20
2018-09-24T17:48:41.008Z,5.13
2018-09-24T17:51:14.822Z,5.23
2018-09-24T17:53:48.851Z,4.70
2018-09-24T17:56:22.787Z,4.60
2018-09-24T17:58:56.793Z,4.57
2018-09-24T18:01:30.684Z,4.20
2018-09-24T18:04:04.623Z,5.40
2018-09-24T18:06:38.614Z,3.80
2018-09-24T18:09:12.604Z,4.90
2018-09-24T18:11:46.531Z,4.80
2018-09-24T18:14:20.348Z,4.90
2018-09-24T18:16:54.155Z,4.40
2018-09-24T18:19:28.091Z,5.20
2018-09-24T18:22:02.023Z,5.13
2018-09-24T18:24:36.033Z,5.20
2018-09-24T18:27:09.970Z,5.33
2018-09-24T18:29:43.878Z,5.77
2018-09-24T18:32:17.807Z,5.20
2018-09-24T18:34:51.816Z,5.10
2018-09-24T18:37:25.831Z,5.13
2018-09-24T18:39:59.567Z,5.60
2018-09-24T18:42:33.542Z,4.63
2018-09-24T18:45:07.546Z,5.13
2018-09-24T18:47:41.388Z,5.30
2018-09-24T18:50:15.412Z,5.53
2018-09-24T18:52:49.382Z,4.73
2018-09-24T18:55:23.174Z,5.10
2018-09-24T18:57:56.995Z,5.27
2018-09-24T19:00:37.807Z,4.87
2018-09-24T19:03:11.795Z,4.80
2018-09-24T19:05:45.608Z,5.60
2018-09-24T19:08:19.468Z,5.60
2018-09-24T19:10:53.463Z,5.10
2018-09-24T19:13:27.508Z,5.30
2018-09-24T19:16:01.527Z,5.87
2018-09-24T19:18:35.445Z,5.37
2018-09-24T19:21:09.222Z,5.23
2018-09-24T19:23:43.133Z,5.90
2018-09-24T19:26:17.108Z,5.00
2018-09-24T19:28:51.058Z,5.63
2018-09-24T19:31:24.912Z,5.37
2018-09-24T19:33:58.854Z,5.17
2018-09-24T19:36:32.666Z,5.20
2018-09-24T19:39:06.603Z,5.67
2018-09-24T19:41:40.638Z,5.50
2018-09-24T19:44:14.618Z,5.70
2018-09-24T19:46:49.467Z,5.07
2018-09-24T19:49:23.422Z,5.27
2018-09-24T19:51:57.343Z,5.40
2018-09-24T19:54:31.370Z,5.20
2018-09-24T19:57:05.394Z,6.23
2018-09-24T19:59:39.334Z,5.73
2018-09-24T20:02:13.190Z,5.93
2018-09-24T20:04:47.020Z,7.03
2018-09-24T20:07:21.068Z,6.70
2018-09-24T20:09:54.990Z,6.93
2018-09-24T20:12:28.900Z,6.20
2018-09-24T20:15:05.103Z,5.90
2018-09-24T20:17:39.851Z,6.57
2018-09-24T20:20:13.656Z,5.27
2018-09-24T20:22:47.583Z,5.70
2018-09-24T20:25:21.600Z,6.20
2018-09-24T20:27:55.619Z,6.20
2018-09-24T20:30:29.471Z,5.63
2018-09-24T20:33:03.267Z,5.23
2018-09-24T20:35:37.306Z,5.50
2018-09-24T20:38:11.211Z,5.93
2018-09-24T20:40:45.206Z,5.53
2018-09-24T20:43:19.084Z,5.83
2018-09-24T20:45:53.019Z,5.50
2018-09-24T20:48:26.991Z,4.80
2018-09-24T20:51:01.195Z,5.83
2018-09-24T20:53:35.161Z,5.40
2018-09-24T20:56:09.138Z,5.80
2018-09-24T20:58:42.958Z,5.80
2018-09-24T21:01:16.910Z,5.67
2018-09-24T21:03:50.741Z,6.03
2018-09-24T21:06:24.671Z,6.87
2018-09-24T21:08:58.674Z,5.60
2018-09-24T21:11:32.592Z,7.30
2018-09-24T21:14:06.547Z,6.90
2018-09-24T21:16:40.499Z,6.10
2018-09-24T21:19:14.342Z,6.10
2018-09-24T21:21:48.244Z,6.70
2018-09-24T21:24:22.239Z,5.40
2018-09-24T21:26:56.079Z,6.70
2018-09-24T21:29:29.999Z,6.77
2018-09-24T21:32:03.835Z,5.97
2018-09-24T21:34:37.826Z,6.30
2018-09-24T21:37:11.626Z,5.87
2018-09-24T21:39:45.590Z,6.00
2018-09-24T21:42:19.467Z,6.60
2018-09-24T21:44:53.308Z,6.53
2018-09-24T21:47:27.134Z,6.23
2018-09-24T21:50:00.976Z,5.93
2018-09-24T21:52:34.789Z,6.50
2018-09-24T21:55:08.763Z,6.27
2018-09-24T21:57:42.548Z,7.30
2018-09-24T22:00:16.498Z,6.80
2018-09-24T22:02:50.346Z,7.03
2018-09-24T22:05:24.360Z,7.40
2018-09-24T22:07:58.175Z,6.40
2018-09-24T22:10:32.019Z,6.03
2018-09-24T22:13:05.891Z,6.33
2018-09-24T22:15:39.862Z,7.13
2018-09-24T22:18:13.845Z,6.57
2018-09-24T22:20:47.700Z,7.90
2018-09-24T22:23:21.572Z,8.10
2018-09-24T22:25:55.548Z,6.70
2018-09-24T22:28:29.550Z,6.23
2018-09-24T22:31:03.559Z,6.37
2018-09-24T22:33:37.405Z,5.73
2018-09-24T22:36:11.386Z,4.67
2018-09-24T22:38:45.343Z,6.03
2018-09-24T22:41:19.166Z,6.10
2018-09-24T22:43:53.076Z,5.43
2018-09-24T22:46:26.988Z,5.93
2018-09-24T22:49:00.906Z,5.80
2018-09-24T22:51:34.738Z,5.37
2018-09-24T22:54:08.627Z,5.60
2018-09-24T22:56:42.344Z,6.17
2018-09-24T22:59:16.322Z,5.50
2018-09-24T23:01:50.172Z,5.80
2018-09-24T23:04:24.058Z,5.03
2018-09-24T23:06:57.939Z,5.40
2018-09-24T23:09:31.947Z,5.87
2018-09-24T23:12:05.814Z,5.83
2018-09-24T23:14:39.671Z,5.20
2018-09-24T23:17:13.620Z,5.50
2018-09-24T23:19:47.551Z,5.33
2018-09-24T23:22:21.431Z,6.40
2018-09-24T23:24:55.283Z,5.17
2018-09-24T23:27:29.711Z,5.20
2018-09-24T23:30:03.543Z,5.97
2018-09-24T23:32:38.517Z,6.30
2018-09-24T23:35:12.376Z,5.70
2018-09-24T23:37:46.094Z,5.47
2018-09-24T23:40:19.924Z,5.50
2018-09-24T23:42:53.919Z,5.37
2018-09-24T23:45:27.727Z,5.57
2018-09-24T23:48:01.571Z,6.13
2018-09-24T23:50:35.395Z,6.10
2018-09-24T23:53:09.418Z,5.50
2018-09-24T23:55:43.191Z,6.30
2018-09-24T23:58:17.202Z,6.27
